Time;durP1;ratioP1;P1;durP2;ratioP2;P2;SDS_P1;SDS_P2;PMS_P1;PMS_P2;Temp;Humidity;BMP_temperature;BMP_pressure;BME280_temperature;BME280_humidity;BME280_pressure;Samples;Min_cycle;Max_cycle;Signal;HPM_P1;HPM_P2
2021/11/05 00:01:32;;;;;;;5.13;3.17;;;7.50;99.90;;;;;;5012037;28;20505;-77
2021/11/05 00:03:57;;;;;;;4.32;3.15;;;7.50;99.90;;;;;;5013418;28;20037;-81
2021/11/05 00:06:24;;;;;;;6.00;3.38;;;7.50;99.90;;;;;;5011386;28;20033;-79
2021/11/05 00:08:51;;;;;;;5.40;3.43;;;7.50;99.90;;;;;;5014270;28;20392;-78
2021/11/05 00:11:16;;;;;;;5.63;3.70;;;7.50;99.90;;;;;;5015042;28;20076;-77
2021/11/05 00:13:42;;;;;;;4.60;3.05;;;7.50;99.90;;;;;;5014816;28;20058;-77
2021/11/05 00:16:08;;;;;;;5.65;3.25;;;7.50;99.90;;;;;;5015007;28;20034;-78
2021/11/05 00:18:33;;;;;;;5.78;3.08;;;7.40;99.90;;;;;;5013689;28;20030;-76
2021/11/05 00:20:59;;;;;;;6.25;3.47;;;7.40;99.90;;;;;;5014394;28;20038;-78
2021/11/05 00:23:25;;;;;;;4.85;3.15;;;7.40;99.90;;;;;;5014643;28;20387;-77
2021/11/05 00:25:50;;;;;;;4.57;3.13;;;7.40;99.90;;;;;;5015999;28;20025;-77
2021/11/05 00:28:16;;;;;;;5.60;3.23;;;7.40;99.90;;;;;;5014392;28;20044;-79
2021/11/05 00:30:43;;;;;;;5.07;3.10;;;7.40;99.90;;;;;;5015075;28;20471;-78
2021/11/05 00:33:08;;;;;;;4.45;2.90;;;7.40;99.90;;;;;;5015069;28;20430;-79
2021/11/05 00:35:34;;;;;;;5.17;2.87;;;7.40;99.90;;;;;;5014333;28;20057;-77
2021/11/05 00:38:00;;;;;;;5.70;2.90;;;7.40;99.90;;;;;;5015399;28;20100;-79
2021/11/05 00:40:28;;;;;;;5.60;3.07;;;7.40;99.90;;;;;;5014360;28;20649;-78
2021/11/05 00:42:54;;;;;;;5.60;3.15;;;7.40;99.90;;;;;;5014737;28;20081;-78
2021/11/05 00:45:20;;;;;;;4.07;3.07;;;7.40;99.90;;;;;;5013819;28;20034;-78
2021/11/05 00:47:45;;;;;;;5.57;3.30;;;7.40;99.90;;;;;;5015672;28;20030;-78
2021/11/05 00:50:11;;;;;;;4.82;3.10;;;7.40;99.90;;;;;;5014648;28;20029;-78
2021/11/05 00:52:37;;;;;;;4.87;3.20;;;7.40;99.90;;;;;;5013180;28;20534;-78
2021/11/05 00:55:04;;;;;;;5.90;3.30;;;7.40;99.90;;;;;;5015643;28;20076;-78
2021/11/05 00:57:29;;;;;;;3.90;3.10;;;7.40;99.90;;;;;;5014068;28;20029;-78
2021/11/05 00:59:55;;;;;;;6.68;3.55;;;7.40;99.90;;;;;;5014544;28;20517;-77
2021/11/05 01:02:21;;;;;;;6.13;3.47;;;7.40;99.90;;;;;;5013469;28;20030;-76
2021/11/05 01:04:46;;;;;;;6.53;3.67;;;7.40;99.90;;;;;;5014766;28;20061;-77
2021/11/05 01:07:12;;;;;;;7.87;3.60;;;7.50;99.90;;;;;;5014728;28;20032;-76
2021/11/05 01:09:38;;;;;;;4.97;3.38;;;7.40;99.90;;;;;;5013392;28;20032;-76
2021/11/05 01:12:04;;;;;;;7.38;3.95;;;7.40;99.90;;;;;;5014272;28;20030;-78
2021/11/05 01:14:30;;;;;;;8.00;3.40;;;7.40;99.90;;;;;;5013807;28;20045;-77
2021/11/05 01:16:58;;;;;;;6.10;3.75;;;7.40;99.90;;;;;;5014995;28;20026;-77
2021/11/05 01:19:24;;;;;;;5.13;3.53;;;7.40;99.90;;;;;;5013888;28;20026;-77
2021/11/05 01:21:50;;;;;;;6.43;3.05;;;7.40;99.90;;;;;;5014603;28;20026;-78
2021/11/05 01:24:16;;;;;;;5.17;3.30;;;7.40;99.90;;;;;;5014060;28;20110;-78
2021/11/05 01:26:41;;;;;;;6.22;3.30;;;7.40;99.90;;;;;;5013289;28;20034;-77
2021/11/05 01:29:07;;;;;;;4.60;3.30;;;7.40;99.90;;;;;;5015376;28;20040;-77
2021/11/05 01:31:33;;;;;;;5.53;3.00;;;7.40;99.90;;;;;;5013395;28;20104;-77
2021/11/05 01:33:59;;;;;;;4.50;2.95;;;7.40;99.90;;;;;;5014499;28;20371;-78
2021/11/05 01:36:25;;;;;;;6.32;2.95;;;7.40;99.90;;;;;;5012955;28;20080;-77
2021/11/05 01:38:51;;;;;;;5.13;2.90;;;7.40;99.90;;;;;;5013391;28;20026;-76
2021/11/05 01:41:16;;;;;;;4.47;2.50;;;7.40;99.90;;;;;;5013435;28;20037;-78
2021/11/05 01:43:46;;;;;;;4.82;3.30;;;7.40;99.90;;;;;;5013503;28;20391;-76
2021/11/05 01:46:12;;;;;;;4.60;2.90;;;7.40;99.90;;;;;;5013157;28;20096;-77
2021/11/05 01:48:38;;;;;;;5.00;3.05;;;7.40;99.90;;;;;;5012576;28;20030;-77
2021/11/05 01:51:04;;;;;;;6.17;2.90;;;7.40;99.90;;;;;;5013429;28;20050;-77
2021/11/05 01:53:30;;;;;;;5.63;2.67;;;7.40;99.90;;;;;;5012357;28;20525;-78
2021/11/05 01:55:56;;;;;;;3.95;2.65;;;7.40;99.90;;;;;;5012865;28;20034;-77
2021/11/05 01:58:24;;;;;;;4.40;2.70;;;7.50;99.90;;;;;;5012361;28;20502;-77
2021/11/05 02:00:49;;;;;;;4.37;2.80;;;7.50;99.90;;;;;;5013936;28;20083;-78
2021/11/05 02:03:15;;;;;;;4.70;3.13;;;7.50;99.90;;;;;;5014935;28;20022;-78
2021/11/05 02:05:43;;;;;;;5.70;3.20;;;7.40;99.90;;;;;;5013425;28;20033;-77
2021/11/05 02:08:11;;;;;;;5.70;3.30;;;7.40;99.90;;;;;;5013868;28;20108;-79
2021/11/05 02:10:38;;;;;;;5.13;3.05;;;7.40;99.90;;;;;;5014514;28;20064;-79
2021/11/05 02:13:04;;;;;;;4.40;2.87;;;7.40;99.90;;;;;;5013523;28;20450;-78
2021/11/05 02:15:30;;;;;;;3.60;2.67;;;7.40;99.90;;;;;;5014226;28;20083;-77
2021/11/05 02:17:55;;;;;;;4.00;2.80;;;7.40;99.90;;;;;;5014545;28;20067;-78
2021/11/05 02:20:27;;;;;;;4.63;2.80;;;7.40;99.90;;;;;;5014211;28;20064;-78
2021/11/05 02:22:55;;;;;;;4.25;2.60;;;7.40;99.90;;;;;;5013450;28;20021;-77
2021/11/05 02:25:23;;;;;;;5.32;2.83;;;7.40;99.90;;;;;;5014068;28;20148;-79
2021/11/05 02:27:49;;;;;;;4.10;2.85;;;7.50;99.90;;;;;;5013321;28;20030;-78
2021/11/05 02:30:16;;;;;;;3.45;2.40;;;7.50;99.90;;;;;;5013208;28;20080;-77
2021/11/05 02:32:42;;;;;;;3.45;2.50;;;7.50;99.90;;;;;;5012927;28;20120;-77
2021/11/05 02:35:11;;;;;;;4.33;2.47;;;7.50;99.90;;;;;;5013950;28;20032;-77
2021/11/05 02:37:37;;;;;;;4.15;2.70;;;7.50;99.90;;;;;;5012582;28;20026;-77
2021/11/05 02:40:04;;;;;;;4.10;2.50;;;7.50;99.90;;;;;;5013871;28;20041;-77
2021/11/05 02:42:30;;;;;;;4.00;2.43;;;7.50;99.90;;;;;;5012407;28;20022;-78
2021/11/05 02:44:55;;;;;;;4.13;2.25;;;7.50;99.90;;;;;;5013051;28;20033;-77
2021/11/05 02:47:24;;;;;;;4.77;2.60;;;7.50;99.90;;;;;;5012519;28;20048;-78
2021/11/05 02:49:54;;;;;;;4.10;2.65;;;7.50;99.90;;;;;;5013540;28;20026;-77
2021/11/05 02:52:21;;;;;;;4.75;2.83;;;7.40;99.90;;;;;;5012549;28;20029;-80
2021/11/05 02:54:46;;;;;;;4.90;2.77;;;7.40;99.90;;;;;;5013229;28;20030;-77
2021/11/05 02:57:12;;;;;;;2.75;2.20;;;7.40;99.90;;;;;;5013322;28;20034;-77
2021/11/05 02:59:39;;;;;;;3.80;2.30;;;7.50;99.90;;;;;;5012673;28;20050;-77
2021/11/05 03:02:05;;;;;;;3.20;2.23;;;7.50;99.90;;;;;;5013791;28;20018;-77
2021/11/05 03:04:31;;;;;;;3.90;2.37;;;7.50;99.90;;;;;;5013444;28;20391;-77
2021/11/05 03:07:03;;;;;;;5.25;2.50;;;7.50;99.90;;;;;;5012633;28;20021;-76
2021/11/05 03:09:35;;;;;;;4.13;2.78;;;7.50;99.90;;;;;;5013372;28;20045;-77
2021/11/05 03:12:02;;;;;;;3.30;2.37;;;7.50;99.90;;;;;;5012880;28;20030;-77
2021/11/05 03:14:28;;;;;;;3.08;2.28;;;7.50;99.90;;;;;;5013669;28;20030;-78
2021/11/05 03:16:54;;;;;;;3.20;2.17;;;7.50;99.90;;;;;;5013771;28;20068;-77
2021/11/05 03:19:20;;;;;;;4.28;2.42;;;7.40;99.90;;;;;;5012533;28;20033;-77
2021/11/05 03:21:46;;;;;;;4.00;2.20;;;7.50;99.90;;;;;;5011848;28;20022;-77
2021/11/05 03:24:12;;;;;;;6.13;2.83;;;7.50;99.90;;;;;;5013989;28;20378;-78
2021/11/05 03:26:38;;;;;;;3.42;2.47;;;7.40;99.90;;;;;;5012538;28;20438;-79
2021/11/05 03:29:03;;;;;;;4.32;2.65;;;7.40;99.90;;;;;;5013137;28;20034;-78
2021/11/05 03:31:29;;;;;;;3.40;2.58;;;7.50;99.90;;;;;;5012039;28;20053;-77
2021/11/05 03:33:55;;;;;;;3.45;2.42;;;7.40;99.90;;;;;;5012549;28;20022;-77
2021/11/05 03:36:21;;;;;;;5.23;2.87;;;7.50;99.90;;;;;;5013728;28;20045;-77
2021/11/05 03:38:48;;;;;;;3.25;2.47;;;7.50;99.90;;;;;;5014759;28;20050;-77
2021/11/05 03:41:14;;;;;;;6.90;2.80;;;7.50;99.90;;;;;;5016239;28;20179;-77
2021/11/05 03:43:40;;;;;;;5.70;2.70;;;7.50;99.90;;;;;;5015397;28;20049;-77
2021/11/05 03:46:07;;;;;;;3.87;2.77;;;7.50;99.90;;;;;;5015922;28;20026;-77
2021/11/05 03:48:35;;;;;;;4.43;2.80;;;7.50;99.90;;;;;;5015855;28;20026;-77
2021/11/05 03:51:02;;;;;;;5.15;2.80;;;7.50;99.90;;;;;;5015788;28;20025;-77
2021/11/05 03:53:28;;;;;;;4.20;2.60;;;7.50;99.90;;;;;;5016732;28;20022;-77
2021/11/05 03:55:53;;;;;;;4.87;2.90;;;7.50;99.90;;;;;;5015812;28;20034;-77
2021/11/05 03:58:19;;;;;;;4.25;2.95;;;7.50;99.90;;;;;;5015767;28;20525;-77
2021/11/05 04:00:45;;;;;;;6.15;3.05;;;7.50;99.90;;;;;;5015304;28;20113;-78
2021/11/05 04:03:10;;;;;;;7.32;3.20;;;7.50;99.90;;;;;;5015794;28;20037;-78
2021/11/05 04:05:36;;;;;;;5.95;3.10;;;7.50;99.90;;;;;;5016475;28;20026;-78
2021/11/05 04:08:02;;;;;;;5.03;3.20;;;7.50;99.90;;;;;;5015799;28;20057;-78
2021/11/05 04:10:28;;;;;;;4.88;3.35;;;7.50;99.90;;;;;;5015757;28;20100;-78
2021/11/05 04:12:54;;;;;;;4.93;3.00;;;7.50;99.90;;;;;;5015594;28;20057;-78
2021/11/05 04:15:19;;;;;;;5.75;3.13;;;7.60;99.90;;;;;;5016541;28;20475;-78
2021/11/05 04:17:45;;;;;;;5.68;3.00;;;7.60;99.90;;;;;;5014650;28;20367;-77
2021/11/05 04:20:11;;;;;;;6.73;3.27;;;7.60;99.90;;;;;;5015097;28;20025;-75
2021/11/05 04:22:39;;;;;;;7.97;3.05;;;7.60;99.90;;;;;;5014662;28;20108;-75
2021/11/05 04:25:05;;;;;;;4.38;2.72;;;7.50;99.90;;;;;;5016190;28;20022;-75
2021/11/05 04:27:30;;;;;;;4.00;2.83;;;7.50;99.90;;;;;;5016073;28;20455;-75
2021/11/05 04:29:56;;;;;;;5.00;2.97;;;7.60;99.90;;;;;;5015111;28;20029;-75
2021/11/05 04:32:22;;;;;;;4.57;2.85;;;7.60;99.90;;;;;;5015813;28;20021;-75
2021/11/05 04:34:47;;;;;;;4.68;3.05;;;7.60;99.90;;;;;;5014359;28;20037;-75
2021/11/05 04:37:13;;;;;;;4.05;3.20;;;7.60;99.90;;;;;;5015019;28;20022;-75
2021/11/05 04:39:39;;;;;;;4.57;2.95;;;7.60;99.90;;;;;;5015251;28;20435;-75
2021/11/05 04:42:05;;;;;;;5.50;2.70;;;7.60;99.90;;;;;;5016148;28;20498;-75
2021/11/05 04:44:30;;;;;;;4.43;3.08;;;7.60;99.90;;;;;;5014152;28;20030;-75
2021/11/05 04:46:56;;;;;;;4.88;2.72;;;7.60;99.90;;;;;;5015985;28;20075;-76
2021/11/05 04:49:25;;;;;;;6.72;3.55;;;7.60;99.90;;;;;;5014645;28;20018;-76
2021/11/05 04:51:51;;;;;;;5.35;3.50;;;7.60;99.90;;;;;;5014413;28;20026;-75
2021/11/05 04:54:17;;;;;;;6.18;3.30;;;7.70;99.90;;;;;;5014369;28;20075;-76
2021/11/05 04:56:43;;;;;;;10.20;3.20;;;7.70;99.90;;;;;;5014001;28;20026;-76
2021/11/05 04:59:09;;;;;;;6.25;3.47;;;7.60;99.90;;;;;;5008852;28;20046;-76
2021/11/05 05:01:35;;;;;;;7.68;3.58;;;7.60;99.90;;;;;;5013122;28;20056;-76
2021/11/05 05:04:00;;;;;;;6.70;3.65;;;7.60;99.90;;;;;;5047333;28;20168;-76
2021/11/05 05:06:26;;;;;;;7.97;3.65;;;7.70;99.90;;;;;;5047696;28;20033;-76
2021/11/05 05:08:52;;;;;;;9.77;3.80;;;7.70;99.90;;;;;;5014622;28;20034;-76
2021/11/05 05:11:17;;;;;;;5.20;3.47;;;7.70;99.90;;;;;;5014171;28;20496;-76
2021/11/05 05:13:43;;;;;;;8.30;3.87;;;7.70;99.90;;;;;;5014748;28;20041;-76
2021/11/05 05:16:09;;;;;;;6.68;3.45;;;7.70;99.90;;;;;;5014093;28;20030;-76
2021/11/05 05:18:34;;;;;;;11.13;3.58;;;7.70;99.90;;;;;;5013763;28;20050;-76
2021/11/05 05:21:00;;;;;;;9.60;3.30;;;7.80;99.90;;;;;;5013805;28;20029;-75
2021/11/05 05:23:26;;;;;;;6.35;3.90;;;7.80;99.90;;;;;;5014979;28;20026;-76
2021/11/05 05:25:51;;;;;;;5.93;3.65;;;7.80;99.90;;;;;;5014102;28;20052;-76
2021/11/05 05:28:18;;;;;;;9.07;4.20;;;7.80;99.90;;;;;;5013756;28;20026;-75
2021/11/05 05:30:44;;;;;;;8.77;4.05;;;7.80;99.90;;;;;;5013465;28;20022;-76
2021/11/05 05:33:09;;;;;;;7.03;4.13;;;7.80;99.90;;;;;;5013816;28;20022;-76
2021/11/05 05:35:35;;;;;;;6.40;3.90;;;7.70;99.90;;;;;;5014704;28;20037;-77
2021/11/05 05:38:01;;;;;;;5.80;3.80;;;7.80;99.90;;;;;;5013913;28;20455;-75
2021/11/05 05:40:27;;;;;;;8.05;4.25;;;7.80;99.90;;;;;;5014836;28;20025;-76
2021/11/05 05:42:53;;;;;;;7.45;3.85;;;7.70;99.90;;;;;;5013084;28;20509;-76
2021/11/05 05:45:20;;;;;;;9.25;4.10;;;7.70;99.90;;;;;;5014573;28;20028;-76
2021/11/05 05:47:46;;;;;;;6.75;4.13;;;7.80;99.90;;;;;;5046445;28;20022;-77
2021/11/05 05:50:14;;;;;;;5.00;3.67;;;7.70;99.90;;;;;;5046624;28;20033;-77
2021/11/05 05:52:40;;;;;;;6.70;4.13;;;7.80;99.90;;;;;;5014178;28;20109;-78
2021/11/05 05:55:08;;;;;;;7.82;4.32;;;7.80;99.90;;;;;;5013566;28;20452;-78
2021/11/05 05:57:33;;;;;;;7.63;4.18;;;7.80;99.90;;;;;;5013212;28;20514;-79
2021/11/05 05:59:59;;;;;;;6.32;3.83;;;7.80;99.90;;;;;;5013198;28;20053;-78
2021/11/05 06:02:28;;;;;;;8.00;4.45;;;7.80;99.90;;;;;;5014515;28;20407;-78
2021/11/05 06:04:54;;;;;;;6.60;4.18;;;7.70;99.90;;;;;;5013693;28;20037;-78
2021/11/05 06:07:20;;;;;;;7.28;4.53;;;7.80;99.90;;;;;;5015096;28;20452;-78
2021/11/05 06:09:46;;;;;;;8.10;4.00;;;7.70;99.90;;;;;;5013358;28;20025;-78
2021/11/05 06:12:11;;;;;;;10.25;4.32;;;7.80;99.90;;;;;;5046411;28;20451;-79
2021/11/05 06:14:37;;;;;;;6.55;4.00;;;7.70;99.90;;;;;;5046038;28;20041;-78
2021/11/05 06:17:03;;;;;;;7.05;4.18;;;7.70;99.90;;;;;;5014448;28;20108;-78
2021/11/05 06:19:29;;;;;;;6.35;4.18;;;7.70;99.90;;;;;;5029909;28;20026;-78
2021/11/05 06:21:55;;;;;;;8.10;4.03;;;7.70;99.90;;;;;;5013751;28;20018;-78
2021/11/05 06:24:22;;;;;;;7.93;4.95;;;7.60;99.90;;;;;;5012959;28;20022;-77
2021/11/05 06:26:49;;;;;;;7.68;4.65;;;7.70;99.90;;;;;;5012465;28;20030;-78
2021/11/05 06:29:15;;;;;;;8.40;4.28;;;7.60;99.90;;;;;;5010928;28;20022;-77
2021/11/05 06:31:42;;;;;;;7.93;4.55;;;7.70;99.90;;;;;;5021198;28;20287;-78
2021/11/05 06:34:08;;;;;;;8.85;4.70;;;7.70;99.90;;;;;;5010344;28;20025;-78
2021/11/05 06:36:33;;;;;;;10.68;5.68;;;7.60;99.90;;;;;;5009129;28;20022;-79
2021/11/05 06:39:01;;;;;;;7.70;4.47;;;7.70;99.90;;;;;;5026860;28;20121;-79
2021/11/05 06:41:27;;;;;;;11.18;5.18;;;7.70;99.90;;;;;;5010680;28;20084;-77
2021/11/05 06:43:53;;;;;;;9.68;5.30;;;7.70;99.90;;;;;;5011570;28;20029;-79
2021/11/05 06:46:20;;;;;;;9.13;5.72;;;7.70;99.90;;;;;;5009292;28;20034;-78
2021/11/05 06:48:46;;;;;;;7.97;4.93;;;7.70;99.90;;;;;;5010906;28;20076;-78
2021/11/05 06:51:11;;;;;;;8.88;5.00;;;7.80;99.90;;;;;;5010066;28;20061;-78
2021/11/05 06:53:37;;;;;;;9.00;4.70;;;7.80;99.90;;;;;;5010555;28;20068;-80
2021/11/05 06:56:03;;;;;;;8.43;4.78;;;7.80;99.90;;;;;;5011670;28;20519;-78
2021/11/05 06:58:35;;;;;;;9.73;5.20;;;7.80;99.90;;;;;;5010200;28;20048;-79
2021/11/05 07:01:01;;;;;;;;;;;7.90;99.90;;;;;;5010308;28;20029;-77
2021/11/05 07:03:27;;;;;;;10.45;4.75;;;7.90;99.90;;;;;;5011585;28;19905;-78
2021/11/05 07:05:53;;;;;;;7.28;4.55;;;7.90;99.90;;;;;;5009790;28;20172;-77
2021/11/05 07:08:18;;;;;;;9.40;4.85;;;7.90;99.90;;;;;;5026489;28;20022;-77
2021/11/05 07:10:46;;;;;;;7.25;4.72;;;7.90;99.90;;;;;;5025682;28;20517;-77
2021/11/05 07:13:11;;;;;;;10.05;4.82;;;7.90;99.90;;;;;;5010340;28;20149;-77
2021/11/05 07:15:37;;;;;;;8.43;4.70;;;7.90;99.90;;;;;;5012557;28;20479;-77
2021/11/05 07:18:03;;;;;;;8.93;5.53;;;8.00;99.90;;;;;;5015767;28;20371;-76
2021/11/05 07:20:29;;;;;;;9.60;5.13;;;8.00;99.90;;;;;;5011335;28;20026;-77
2021/11/05 07:22:54;;;;;;;11.15;4.93;;;8.00;99.90;;;;;;5012867;28;20018;-77
2021/11/05 07:25:21;;;;;;;9.02;5.22;;;8.00;99.90;;;;;;5012361;28;20030;-78
2021/11/05 07:27:46;;;;;;;9.48;5.18;;;8.00;99.90;;;;;;5030729;28;20475;-77
2021/11/05 07:30:14;;;;;;;8.57;4.85;;;8.10;99.90;;;;;;5013856;28;20026;-77
2021/11/05 07:32:51;;;;;;;9.55;5.43;;;8.10;99.90;;;;;;5027425;28;20021;-76
2021/11/05 07:35:21;;;;;;;9.95;5.10;;;8.10;99.90;;;;;;5028967;28;20750;-77
2021/11/05 07:37:48;;;;;;;9.77;5.68;;;8.10;99.90;;;;;;5012199;28;20379;-77
2021/11/05 07:40:15;;;;;;;8.98;4.95;;;8.10;99.90;;;;;;5011623;28;20026;-77
2021/11/05 07:42:43;;;;;;;9.13;5.38;;;8.20;99.90;;;;;;5012930;28;20018;-77
2021/11/05 07:45:10;;;;;;;9.93;5.28;;;8.20;99.90;;;;;;5013409;28;20033;-75
2021/11/05 07:47:37;;;;;;;8.65;4.90;;;8.20;99.90;;;;;;5011017;28;20025;-74
2021/11/05 07:50:05;;;;;;;8.07;4.88;;;8.20;99.90;;;;;;5011251;28;20029;-75
2021/11/05 07:52:31;;;;;;;10.50;5.25;;;8.20;99.90;;;;;;5011650;28;20740;-77
2021/11/05 07:54:56;;;;;;;7.72;4.93;;;8.20;99.90;;;;;;5029850;28;20045;-77
2021/11/05 07:57:23;;;;;;;7.47;4.30;;;8.20;99.90;;;;;;5014183;28;20037;-78
2021/11/05 07:59:48;;;;;;;6.68;4.68;;;8.30;99.90;;;;;;5028189;28;20057;-78
2021/11/05 08:02:14;;;;;;;9.40;5.75;;;8.30;99.90;;;;;;5011151;28;20026;-78
2021/11/05 08:04:40;;;;;;;7.93;4.97;;;8.40;99.90;;;;;;5011076;28;20036;-78
2021/11/05 08:07:06;;;;;;;8.32;4.82;;;8.40;99.90;;;;;;5013527;28;20475;-79
2021/11/05 08:09:32;;;;;;;9.82;4.88;;;8.50;99.90;;;;;;5012154;28;20024;-77
2021/11/05 08:11:58;;;;;;;8.68;4.55;;;8.50;99.90;;;;;;5013354;28;20510;-80
2021/11/05 08:14:24;;;;;;;9.38;5.55;;;8.50;99.90;;;;;;5012169;28;20044;-79
2021/11/05 08:16:49;;;;;;;7.30;4.95;;;8.50;99.90;;;;;;5011948;28;20026;-74
2021/11/05 08:19:15;;;;;;;11.35;5.47;;;8.50;99.90;;;;;;5011254;28;20041;-74
2021/11/05 08:21:41;;;;;;;8.27;4.68;;;8.60;99.90;;;;;;5011324;28;20687;-74
2021/11/05 08:24:07;;;;;;;8.80;4.72;;;8.60;99.90;;;;;;5010507;28;20026;-74
2021/11/05 08:26:35;;;;;;;10.45;4.95;;;8.60;99.90;;;;;;5009269;28;20030;-75
2021/11/05 08:29:02;;;;;;;8.07;5.07;;;8.60;99.90;;;;;;5008915;28;20088;-75
2021/11/05 08:31:27;;;;;;;9.23;4.95;;;8.70;99.90;;;;;;5013045;28;20026;-75
2021/11/05 08:33:54;;;;;;;9.23;4.97;;;8.70;99.90;;;;;;5011479;28;20037;-75
2021/11/05 08:36:24;;;;;;;7.85;4.65;;;8.70;99.90;;;;;;5011176;28;20041;-76
2021/11/05 08:38:51;;;;;;;11.85;4.85;;;8.70;99.90;;;;;;5009265;28;20037;-75
2021/11/05 08:41:17;;;;;;;11.40;5.03;;;8.70;99.90;;;;;;5011668;28;20037;-75
2021/11/05 08:43:52;;;;;;;7.63;4.60;;;8.70;99.90;;;;;;5011171;28;20057;-77
2021/11/05 08:46:20;;;;;;;9.85;4.90;;;8.80;99.90;;;;;;5006647;28;20037;-75
2021/11/05 08:48:52;;;;;;;8.20;4.75;;;8.80;99.90;;;;;;5009348;28;20037;-74
2021/11/05 08:51:18;;;;;;;7.43;4.55;;;8.80;99.90;;;;;;5007570;28;20033;-75
2021/11/05 08:53:45;;;;;;;6.45;4.30;;;8.80;99.90;;;;;;5010184;28;20069;-74
2021/11/05 08:56:12;;;;;;;8.57;4.90;;;8.80;99.90;;;;;;5012302;28;20375;-75
2021/11/05 08:58:38;;;;;;;7.70;4.55;;;8.80;99.90;;;;;;5010783;28;20078;-77
2021/11/05 09:01:05;;;;;;;7.75;4.50;;;8.90;99.90;;;;;;5010551;28;20057;-74
2021/11/05 09:03:31;;;;;;;7.93;4.32;;;8.90;99.90;;;;;;5010703;28;20026;-76
2021/11/05 09:05:57;;;;;;;6.70;4.20;;;9.00;99.90;;;;;;5010219;28;20022;-76
2021/11/05 09:08:23;;;;;;;8.75;4.75;;;9.00;99.90;;;;;;5011703;28;20479;-74
2021/11/05 09:10:49;;;;;;;7.25;4.78;;;9.00;99.90;;;;;;5008574;28;20030;-76
2021/11/05 09:13:15;;;;;;;8.05;5.03;;;9.10;99.90;;;;;;5009828;28;20061;-77
2021/11/05 09:15:41;;;;;;;8.95;4.72;;;9.20;99.90;;;;;;5011423;28;20065;-74
2021/11/05 09:18:09;;;;;;;8.50;5.20;;;9.20;99.90;;;;;;5013246;28;20022;-75
2021/11/05 09:20:36;;;;;;;10.23;5.00;;;9.20;99.90;;;;;;5011818;28;20029;-76
2021/11/05 09:23:02;;;;;;;7.00;4.50;;;9.30;99.90;;;;;;5004642;28;20029;-75
2021/11/05 09:25:29;;;;;;;7.63;4.65;;;9.30;99.90;;;;;;5011719;28;20116;-74
2021/11/05 09:27:55;;;;;;;9.68;4.90;;;9.30;99.90;;;;;;5011935;28;20038;-75
2021/11/05 09:30:23;;;;;;;7.65;4.97;;;9.40;99.90;;;;;;5011694;28;20136;-74
2021/11/05 09:32:50;;;;;;;7.82;4.55;;;9.50;99.90;;;;;;5011102;28;20033;-74
2021/11/05 09:35:16;;;;;;;10.65;5.43;;;9.50;99.90;;;;;;5011513;28;20036;-74
2021/11/05 09:37:44;;;;;;;9.40;5.22;;;9.50;99.90;;;;;;5007765;28;20026;-75
2021/11/05 09:40:14;;;;;;;7.43;4.70;;;9.60;99.90;;;;;;5010032;28;20032;-75
2021/11/05 09:42:46;;;;;;;8.45;4.85;;;9.60;99.90;;;;;;5009548;28;20069;-75
2021/11/05 09:45:12;;;;;;;9.35;5.28;;;9.50;99.90;;;;;;5022753;28;20642;-76
2021/11/05 09:47:42;;;;;;;8.35;5.03;;;9.50;99.90;;;;;;5014755;28;20440;-78
2021/11/05 09:50:11;;;;;;;9.68;5.25;;;9.50;99.90;;;;;;5010549;28;20444;-75
2021/11/05 09:52:38;;;;;;;8.77;5.05;;;9.50;99.90;;;;;;5010247;28;20022;-77
2021/11/05 09:55:06;;;;;;;8.82;4.85;;;9.50;99.90;;;;;;5010173;28;20132;-75
2021/11/05 09:57:31;;;;;;;14.02;6.07;;;9.50;99.90;;;;;;5010867;28;20562;-75
2021/11/05 09:59:58;;;;;;;8.07;4.95;;;9.50;99.90;;;;;;5009893;28;20137;-75
2021/11/05 10:02:24;;;;;;;12.30;5.22;;;9.40;99.90;;;;;;5011574;28;20845;-76
2021/11/05 10:04:55;;;;;;;8.13;5.20;;;9.40;99.90;;;;;;5009696;28;20390;-75
2021/11/05 10:07:20;;;;;;;8.52;5.10;;;9.40;99.90;;;;;;5009674;28;20554;-75
2021/11/05 10:09:57;;;;;;;7.63;4.90;;;9.40;99.90;;;;;;5009533;28;20053;-76
2021/11/05 10:12:29;;;;;;;8.57;5.05;;;9.40;99.90;;;;;;5010057;28;20022;-74
2021/11/05 10:15:00;;;;;;;;;;;9.50;99.90;;;;;;5025786;28;20095;-74
2021/11/05 10:17:27;;;;;;;9.52;4.70;;;9.50;99.90;;;;;;5009701;28;19967;-76
2021/11/05 10:19:55;;;;;;;10.07;5.03;;;9.40;99.90;;;;;;5010142;28;20101;-76
2021/11/05 10:22:48;;;;;;;9.95;5.45;;;9.50;99.90;;;;;;5009452;28;20116;-75
2021/11/05 10:25:29;;;;;;;8.35;4.80;;;9.60;99.90;;;;;;5008932;28;20121;-75
2021/11/05 10:28:25;;;;;;;9.90;4.82;;;9.70;99.90;;;;;;5010605;28;20544;-78
2021/11/05 10:31:03;;;;;;;11.05;5.05;;;9.70;99.90;;;;;;5007826;28;20474;-77
2021/11/05 10:33:38;;;;;;;8.73;5.20;;;9.80;99.90;;;;;;5009742;28;20057;-76
2021/11/05 10:36:06;;;;;;;10.30;5.55;;;9.70;99.90;;;;;;5000452;28;20028;-76
2021/11/05 10:38:53;;;;;;;9.68;5.53;;;9.80;99.90;;;;;;5008939;28;20522;-76
2021/11/05 10:41:21;;;;;;;11.13;5.65;;;9.90;99.90;;;;;;5003043;28;20025;-78
2021/11/05 10:43:49;;;;;;;10.30;5.47;;;10.00;99.90;;;;;;5001422;28;20061;-76
2021/11/05 10:46:29;;;;;;;8.38;5.47;;;10.00;99.90;;;;;;5008810;28;20037;-74
2021/11/05 10:48:58;;;;;;;11.05;5.60;;;10.00;99.90;;;;;;5006546;28;20022;-74
2021/11/05 10:51:26;;;;;;;8.95;5.53;;;9.90;99.90;;;;;;5014801;28;20021;-74
2021/11/05 10:53:52;;;;;;;9.43;5.40;;;10.00;99.90;;;;;;5009194;28;20022;-73
2021/11/05 10:56:24;;;;;;;8.48;5.43;;;9.90;99.90;;;;;;5010362;28;20112;-72
2021/11/05 10:58:50;;;;;;;9.70;5.05;;;10.00;99.90;;;;;;5011883;28;20080;-73
2021/11/05 11:01:19;;;;;;;9.65;5.72;;;10.00;99.90;;;;;;5010895;28;20029;-73
2021/11/05 11:03:47;;;;;;;9.23;5.53;;;10.00;99.90;;;;;;5011459;28;20053;-73
2021/11/05 11:06:17;;;;;;;8.95;5.32;;;10.00;99.90;;;;;;5010900;28;20064;-73
2021/11/05 11:08:50;;;;;;;10.18;5.65;;;9.90;99.90;;;;;;5010887;28;20064;-72
2021/11/05 11:11:32;;;;;;;8.60;5.22;;;9.90;99.90;;;;;;5011701;28;20109;-74
2021/11/05 11:14:05;;;;;;;10.77;5.87;;;9.90;99.90;;;;;;5012621;28;20022;-73
2021/11/05 11:16:36;;;;;;;9.25;5.15;;;9.90;99.90;;;;;;5013777;28;20038;-73
2021/11/05 11:19:15;;;;;;;9.80;5.00;;;9.90;99.90;;;;;;5025509;28;20053;-75
2021/11/05 11:21:51;;;;;;;8.77;5.35;;;10.00;99.90;;;;;;5007270;28;20027;-74
2021/11/05 11:24:20;;;;;;;10.15;5.28;;;10.00;99.90;;;;;;5010347;28;20022;-73
2021/11/05 11:26:48;;;;;;;8.57;5.25;;;9.90;99.90;;;;;;5009621;28;20038;-74
2021/11/05 11:29:16;;;;;;;10.05;5.20;;;9.90;99.90;;;;;;5012419;28;20442;-74
2021/11/05 11:31:44;;;;;;;9.85;5.47;;;9.90;99.90;;;;;;5010514;28;20033;-74
2021/11/05 11:34:12;;;;;;;9.48;5.22;;;10.00;99.90;;;;;;5009791;28;20107;-74
2021/11/05 11:36:42;;;;;;;8.63;5.05;;;10.00;99.90;;;;;;5011780;28;20026;-76
2021/11/05 11:39:15;;;;;;;17.75;5.55;;;10.00;99.90;;;;;;5012627;28;20028;-75
2021/11/05 11:41:43;;;;;;;8.85;5.25;;;10.10;99.90;;;;;;5011988;28;20018;-77
2021/11/05 11:44:12;;;;;;;7.90;5.10;;;10.00;99.90;;;;;;5010193;28;20121;-76
2021/11/05 11:47:01;;;;;;;9.07;5.43;;;10.00;99.90;;;;;;5011283;28;20383;-75
2021/11/05 11:49:39;;;;;;;9.25;5.35;;;10.10;99.90;;;;;;5005121;28;20470;-73
2021/11/05 11:52:15;;;;;;;8.10;5.50;;;10.20;99.90;;;;;;5010780;28;20823;-75
2021/11/05 11:54:45;;;;;;;12.18;6.15;;;10.20;99.90;;;;;;5026958;28;20483;-74
2021/11/05 11:57:22;;;;;;;8.65;4.90;;;10.20;99.90;;;;;;5023968;28;20068;-75
2021/11/05 12:00:20;;;;;;;7.90;5.22;;;10.20;99.90;;;;;;5008599;28;20454;-75
2021/11/05 12:02:51;;;;;;;9.77;6.00;;;10.20;99.90;;;;;;5026012;28;20077;-74
2021/11/05 12:05:25;;;;;;;9.43;5.25;;;10.20;99.90;;;;;;4990829;28;20038;-76
2021/11/05 12:08:35;;;;;;;10.88;5.47;;;10.30;99.90;;;;;;5009266;28;20026;-76
2021/11/05 12:11:07;;;;;;;8.90;5.40;;;10.20;99.90;;;;;;5027895;28;20030;-74
2021/11/05 12:13:36;;;;;;;;;;;10.20;99.90;;;;;;5011784;28;20033;-76
2021/11/05 12:16:23;;;;;;;9.65;5.68;;;10.20;99.90;;;;;;5026415;28;19917;-75
2021/11/05 12:18:58;;;;;;;7.68;4.57;;;10.20;99.90;;;;;;5026597;28;20030;-74
2021/11/05 12:21:29;;;;;;;10.63;5.22;;;10.30;99.90;;;;;;5025353;28;20021;-75
2021/11/05 12:26:45;;;;;;;10.55;5.60;;;10.30;99.90;;;;;;5012479;28;20270;-78
2021/11/05 12:29:31;;;;;;;8.40;5.40;;;10.30;99.90;;;;;;5016792;28;20542;-75
2021/11/05 12:31:57;;;;;;;8.55;5.40;;;10.30;99.90;;;;;;5022372;28;20034;-74
2021/11/05 12:34:26;;;;;;;9.90;5.57;;;10.40;99.90;;;;;;4999795;28;20440;-74
2021/11/05 12:36:57;;;;;;;9.15;5.78;;;10.40;99.90;;;;;;5011774;28;20033;-75
2021/11/05 12:39:36;;;;;;;10.20;5.20;;;10.40;99.90;;;;;;5002103;28;20422;-75
2021/11/05 12:42:03;;;;;;;8.48;5.28;;;10.40;99.90;;;;;;5007598;28;20395;-76
2021/11/05 12:44:57;;;;;;;9.02;4.97;;;10.40;99.90;;;;;;5012233;28;20487;-75
2021/11/05 12:47:49;;;;;;;7.88;5.22;;;10.40;99.60;;;;;;5026986;28;20038;-75
2021/11/05 12:50:22;;;;;;;10.63;5.03;;;10.40;99.20;;;;;;5012621;28;20033;-74
2021/11/05 12:52:55;;;;;;;9.57;4.80;;;10.40;98.90;;;;;;5011448;28;20041;-76
2021/11/05 12:55:23;;;;;;;8.57;4.75;;;10.40;99.00;;;;;;5009461;28;20042;-75
2021/11/05 12:57:55;;;;;;;8.40;5.22;;;10.30;99.30;;;;;;5024900;28;20478;-75
2021/11/05 13:00:26;;;;;;;10.68;5.53;;;10.30;99.70;;;;;;5009735;28;20442;-74
2021/11/05 13:03:00;;;;;;;9.13;5.65;;;10.30;99.80;;;;;;5009703;28;20091;-75